sensor_id;sensor_type;location;lat;lon;timestamp;temperature;humidity
5675;DHT22;2860;54.284;10.158;2023-03-20T00:02:24;7.60;99.90
5675;DHT22;2860;54.284;10.158;2023-03-20T00:04:50;7.60;99.90
5675;DHT22;2860;54.284;10.158;2023-03-20T00:07:16;7.50;99.90
5675;DHT22;2860;54.284;10.158;2023-03-20T00:09:41;7.50;99.90
5675;DHT22;2860;54.284;10.158;2023-03-20T00:12:12;7.40;99.90
5675;DHT22;2860;54.284;10.158;2023-03-20T00:14:40;7.30;99.90
5675;DHT22;2860;54.284;10.158;2023-03-20T00:17:18;7.30;99.90
5675;DHT22;2860;54.284;10.158;2023-03-20T00:19:44;7.20;99.90
5675;DHT22;2860;54.284;10.158;2023-03-20T00:22:10;7.20;99.90
5675;DHT22;2860;54.284;10.158;2023-03-20T00:24:36;7.20;99.90
5675;DHT22;2860;54.284;10.158;2023-03-20T00:27:02;7.20;99.90
5675;DHT22;2860;54.284;10.158;2023-03-20T00:29:30;7.20;99.90
5675;DHT22;2860;54.284;10.158;2023-03-20T00:31:57;7.10;99.90
5675;DHT22;2860;54.284;10.158;2023-03-20T00:34:25;7.00;99.90
5675;DHT22;2860;54.284;10.158;2023-03-20T00:36:53;7.00;99.90
5675;DHT22;2860;54.284;10.158;2023-03-20T00:39:19;7.00;99.90
5675;DHT22;2860;54.284;10.158;2023-03-20T00:41:50;6.90;99.90
5675;DHT22;2860;54.284;10.158;2023-03-20T00:44:18;6.90;99.90
5675;DHT22;2860;54.284;10.158;2023-03-20T00:46:48;6.90;99.90
5675;DHT22;2860;54.284;10.158;2023-03-20T00:49:14;6.90;99.90
5675;DHT22;2860;54.284;10.158;2023-03-20T00:51:40;6.90;99.90
5675;DHT22;2860;54.284;10.158;2023-03-20T00:54:14;6.90;99.90
5675;DHT22;2860;54.284;10.158;2023-03-20T00:56:43;6.90;99.90
5675;DHT22;2860;54.284;10.158;2023-03-20T00:59:16;6.80;99.90
5675;DHT22;2860;54.284;10.158;2023-03-20T01:01:43;6.80;99.90
5675;DHT22;2860;54.284;10.158;2023-03-20T01:04:12;6.80;99.90
5675;DHT22;2860;54.284;10.158;2023-03-20T01:06:38;6.70;99.90
5675;DHT22;2860;54.284;10.158;2023-03-20T01:09:04;6.70;99.90
5675;DHT22;2860;54.284;10.158;2023-03-20T01:11:29;6.70;99.90
5675;DHT22;2860;54.284;10.158;2023-03-20T01:13:55;6.50;99.90
5675;DHT22;2860;54.284;10.158;2023-03-20T01:16:23;6.50;99.90
5675;DHT22;2860;54.284;10.158;2023-03-20T01:18:50;6.50;99.90
5675;DHT22;2860;54.284;10.158;2023-03-20T01:21:16;6.40;99.90
5675;DHT22;2860;54.284;10.158;2023-03-20T01:23:42;6.40;99.90
5675;DHT22;2860;54.284;10.158;2023-03-20T01:26:26;6.40;99.90
5675;DHT22;2860;54.284;10.158;2023-03-20T01:28:53;6.40;99.90
5675;DHT22;2860;54.284;10.158;2023-03-20T01:31:18;6.40;99.90
5675;DHT22;2860;54.284;10.158;2023-03-20T01:33:44;6.30;99.90
5675;DHT22;2860;54.284;10.158;2023-03-20T01:36:12;6.20;99.90
5675;DHT22;2860;54.284;10.158;2023-03-20T01:38:38;6.20;99.90
5675;DHT22;2860;54.284;10.158;2023-03-20T01:41:08;6.10;99.90
5675;DHT22;2860;54.284;10.158;2023-03-20T01:43:35;6.00;99.90
5675;DHT22;2860;54.284;10.158;2023-03-20T01:46:15;6.00;99.90
5675;DHT22;2860;54.284;10.158;2023-03-20T01:51:15;5.90;99.90
5675;DHT22;2860;54.284;10.158;2023-03-20T01:53:42;5.90;99.90
5675;DHT22;2860;54.284;10.158;2023-03-20T01:56:07;5.80;99.90
5675;DHT22;2860;54.284;10.158;2023-03-20T01:58:37;5.80;99.90
5675;DHT22;2860;54.284;10.158;2023-03-20T02:01:05;5.80;99.90
5675;DHT22;2860;54.284;10.158;2023-03-20T02:03:32;5.80;99.90
5675;DHT22;2860;54.284;10.158;2023-03-20T02:05:58;5.80;99.90
5675;DHT22;2860;54.284;10.158;2023-03-20T02:08:28;5.80;99.90
5675;DHT22;2860;54.284;10.158;2023-03-20T02:10:55;5.80;99.90
5675;DHT22;2860;54.284;10.158;2023-03-20T02:13:21;5.80;99.90
5675;DHT22;2860;54.284;10.158;2023-03-20T02:16:02;5.80;99.90
5675;DHT22;2860;54.284;10.158;2023-03-20T02:18:31;5.80;99.90
5675;DHT22;2860;54.284;10.158;2023-03-20T02:27:01;5.70;99.90
5675;DHT22;2860;54.284;10.158;2023-03-20T02:35:35;5.60;99.90
5675;DHT22;2860;54.284;10.158;2023-03-20T02:43:44;5.70;99.90
5675;DHT22;2860;54.284;10.158;2023-03-20T02:46:39;5.80;99.90
5675;DHT22;2860;54.284;10.158;2023-03-20T02:52:30;5.80;99.90
5675;DHT22;2860;54.284;10.158;2023-03-20T02:55:09;5.80;99.90
5675;DHT22;2860;54.284;10.158;2023-03-20T02:57:58;5.80;99.90
5675;DHT22;2860;54.284;10.158;2023-03-20T03:00:39;5.80;99.90
5675;DHT22;2860;54.284;10.158;2023-03-20T03:06:03;5.90;99.90
5675;DHT22;2860;54.284;10.158;2023-03-20T03:08:31;5.90;99.90
5675;DHT22;2860;54.284;10.158;2023-03-20T03:11:02;5.90;99.90
5675;DHT22;2860;54.284;10.158;2023-03-20T03:13:30;5.90;99.90
5675;DHT22;2860;54.284;10.158;2023-03-20T03:16:06;5.90;99.90
5675;DHT22;2860;54.284;10.158;2023-03-20T03:18:34;5.90;99.90
5675;DHT22;2860;54.284;10.158;2023-03-20T03:21:03;5.90;99.90
5675;DHT22;2860;54.284;10.158;2023-03-20T03:23:34;5.90;99.90
5675;DHT22;2860;54.284;10.158;2023-03-20T03:26:02;5.90;99.90
5675;DHT22;2860;54.284;10.158;2023-03-20T03:31:06;5.90;99.90
5675;DHT22;2860;54.284;10.158;2023-03-20T03:33:34;5.90;99.90
5675;DHT22;2860;54.284;10.158;2023-03-20T03:36:30;5.90;99.90
5675;DHT22;2860;54.284;10.158;2023-03-20T03:39:00;5.90;99.90
5675;DHT22;2860;54.284;10.158;2023-03-20T03:41:37;5.90;99.90
5675;DHT22;2860;54.284;10.158;2023-03-20T03:44:27;6.00;99.90
5675;DHT22;2860;54.284;10.158;2023-03-20T03:47:18;5.90;99.90
5675;DHT22;2860;54.284;10.158;2023-03-20T03:49:48;6.00;99.90
5675;DHT22;2860;54.284;10.158;2023-03-20T03:52:19;6.00;99.90
5675;DHT22;2860;54.284;10.158;2023-03-20T03:54:57;6.00;99.90
5675;DHT22;2860;54.284;10.158;2023-03-20T03:57:33;6.00;99.90
5675;DHT22;2860;54.284;10.158;2023-03-20T04:00:03;6.00;99.90
5675;DHT22;2860;54.284;10.158;2023-03-20T04:02:31;6.00;99.90
5675;DHT22;2860;54.284;10.158;2023-03-20T04:08:18;6.00;99.90
5675;DHT22;2860;54.284;10.158;2023-03-20T04:10:44;6.00;99.90
5675;DHT22;2860;54.284;10.158;2023-03-20T04:13:10;6.00;99.90
5675;DHT22;2860;54.284;10.158;2023-03-20T04:15:36;6.00;99.90
5675;DHT22;2860;54.284;10.158;2023-03-20T04:18:03;6.00;99.90
5675;DHT22;2860;54.284;10.158;2023-03-20T04:20:28;6.00;99.90
5675;DHT22;2860;54.284;10.158;2023-03-20T04:22:54;5.90;99.90
5675;DHT22;2860;54.284;10.158;2023-03-20T04:25:22;5.90;99.90
5675;DHT22;2860;54.284;10.158;2023-03-20T04:27:49;5.90;99.90
5675;DHT22;2860;54.284;10.158;2023-03-20T04:30:15;6.00;99.90
5675;DHT22;2860;54.284;10.158;2023-03-20T04:32:40;5.90;99.90
5675;DHT22;2860;54.284;10.158;2023-03-20T04:35:06;6.00;99.90
5675;DHT22;2860;54.284;10.158;2023-03-20T04:37:32;5.90;99.90
5675;DHT22;2860;54.284;10.158;2023-03-20T04:39:57;5.90;99.90
5675;DHT22;2860;54.284;10.158;2023-03-20T04:42:23;5.90;99.90
5675;DHT22;2860;54.284;10.158;2023-03-20T04:44:49;5.90;99.90
5675;DHT22;2860;54.284;10.158;2023-03-20T04:47:14;5.90;99.90
5675;DHT22;2860;54.284;10.158;2023-03-20T04:49:40;5.90;99.90
5675;DHT22;2860;54.284;10.158;2023-03-20T04:52:05;5.90;99.90
5675;DHT22;2860;54.284;10.158;2023-03-20T04:54:31;5.90;99.90
5675;DHT22;2860;54.284;10.158;2023-03-20T04:56:57;5.90;99.90
5675;DHT22;2860;54.284;10.158;2023-03-20T04:59:22;6.00;99.90
5675;DHT22;2860;54.284;10.158;2023-03-20T05:01:48;6.00;99.90
5675;DHT22;2860;54.284;10.158;2023-03-20T05:04:13;6.00;99.90
5675;DHT22;2860;54.284;10.158;2023-03-20T05:06:39;6.00;99.90
5675;DHT22;2860;54.284;10.158;2023-03-20T05:09:05;6.00;99.90
5675;DHT22;2860;54.284;10.158;2023-03-20T05:11:30;6.10;99.90
5675;DHT22;2860;54.284;10.158;2023-03-20T05:13:56;6.10;99.90
5675;DHT22;2860;54.284;10.158;2023-03-20T05:16:21;6.10;99.90
5675;DHT22;2860;54.284;10.158;2023-03-20T05:18:47;6.00;99.90
5675;DHT22;2860;54.284;10.158;2023-03-20T05:21:12;6.00;99.90
5675;DHT22;2860;54.284;10.158;2023-03-20T05:23:38;6.00;99.90
5675;DHT22;2860;54.284;10.158;2023-03-20T05:26:03;6.00;99.90
5675;DHT22;2860;54.284;10.158;2023-03-20T05:28:29;6.00;99.90
5675;DHT22;2860;54.284;10.158;2023-03-20T05:30:55;6.00;99.90
5675;DHT22;2860;54.284;10.158;2023-03-20T05:33:21;6.10;99.90
5675;DHT22;2860;54.284;10.158;2023-03-20T05:35:46;6.10;99.90
5675;DHT22;2860;54.284;10.158;2023-03-20T05:38:12;6.10;99.90
5675;DHT22;2860;54.284;10.158;2023-03-20T05:40:38;6.10;99.90
5675;DHT22;2860;54.284;10.158;2023-03-20T05:43:03;6.10;99.90
5675;DHT22;2860;54.284;10.158;2023-03-20T05:45:29;6.10;99.90
5675;DHT22;2860;54.284;10.158;2023-03-20T05:47:54;6.00;99.90
5675;DHT22;2860;54.284;10.158;2023-03-20T05:50:20;6.10;99.90
5675;DHT22;2860;54.284;10.158;2023-03-20T05:52:46;6.10;99.90
5675;DHT22;2860;54.284;10.158;2023-03-20T05:55:13;6.10;99.90
5675;DHT22;2860;54.284;10.158;2023-03-20T05:57:39;6.10;99.90
5675;DHT22;2860;54.284;10.158;2023-03-20T06:00:05;6.10;99.90
5675;DHT22;2860;54.284;10.158;2023-03-20T06:02:31;6.10;99.90
5675;DHT22;2860;54.284;10.158;2023-03-20T06:04:57;6.10;99.90
5675;DHT22;2860;54.284;10.158;2023-03-20T06:07:22;6.10;99.90
5675;DHT22;2860;54.284;10.158;2023-03-20T06:09:48;6.10;99.90
5675;DHT22;2860;54.284;10.158;2023-03-20T06:12:13;6.10;99.90
5675;DHT22;2860;54.284;10.158;2023-03-20T06:14:40;6.20;99.90
5675;DHT22;2860;54.284;10.158;2023-03-20T06:17:06;6.20;99.90
5675;DHT22;2860;54.284;10.158;2023-03-20T06:19:31;6.20;99.90
5675;DHT22;2860;54.284;10.158;2023-03-20T06:21:57;6.20;99.90
5675;DHT22;2860;54.284;10.158;2023-03-20T06:24:22;6.20;99.90
5675;DHT22;2860;54.284;10.158;2023-03-20T06:26:48;6.20;99.90
5675;DHT22;2860;54.284;10.158;2023-03-20T06:29:14;6.30;99.90
5675;DHT22;2860;54.284;10.158;2023-03-20T06:31:39;6.30;99.90
5675;DHT22;2860;54.284;10.158;2023-03-20T06:34:05;6.30;99.90
5675;DHT22;2860;54.284;10.158;2023-03-20T06:36:31;6.30;99.90
5675;DHT22;2860;54.284;10.158;2023-03-20T06:38:57;6.30;99.90
5675;DHT22;2860;54.284;10.158;2023-03-20T06:41:22;6.30;99.90
5675;DHT22;2860;54.284;10.158;2023-03-20T06:43:48;6.40;99.90
5675;DHT22;2860;54.284;10.158;2023-03-20T06:46:13;6.30;99.90
5675;DHT22;2860;54.284;10.158;2023-03-20T06:48:39;6.40;99.90
5675;DHT22;2860;54.284;10.158;2023-03-20T06:51:05;6.40;99.90
5675;DHT22;2860;54.284;10.158;2023-03-20T06:53:32;6.40;99.90
5675;DHT22;2860;54.284;10.158;2023-03-20T06:55:57;6.40;99.90
5675;DHT22;2860;54.284;10.158;2023-03-20T06:58:23;6.40;99.90
5675;DHT22;2860;54.284;10.158;2023-03-20T07:00:49;6.40;99.90
5675;DHT22;2860;54.284;10.158;2023-03-20T07:03:14;6.40;99.90
5675;DHT22;2860;54.284;10.158;2023-03-20T07:05:40;6.40;99.90
5675;DHT22;2860;54.284;10.158;2023-03-20T07:08:06;6.50;99.90
5675;DHT22;2860;54.284;10.158;2023-03-20T07:10:32;6.50;99.90
5675;DHT22;2860;54.284;10.158;2023-03-20T07:12:58;6.50;99.90
5675;DHT22;2860;54.284;10.158;2023-03-20T07:15:24;6.60;99.90
5675;DHT22;2860;54.284;10.158;2023-03-20T07:17:50;6.60;99.90
5675;DHT22;2860;54.284;10.158;2023-03-20T07:20:16;6.70;99.90
5675;DHT22;2860;54.284;10.158;2023-03-20T07:22:42;6.70;99.90
5675;DHT22;2860;54.284;10.158;2023-03-20T07:25:10;6.70;99.90
5675;DHT22;2860;54.284;10.158;2023-03-20T07:27:36;6.70;99.90
5675;DHT22;2860;54.284;10.158;2023-03-20T07:30:03;6.70;99.90
5675;DHT22;2860;54.284;10.158;2023-03-20T07:32:29;6.80;99.90
5675;DHT22;2860;54.284;10.158;2023-03-20T07:34:54;6.80;99.90
5675;DHT22;2860;54.284;10.158;2023-03-20T07:37:20;6.70;99.90
5675;DHT22;2860;54.284;10.158;2023-03-20T07:39:46;6.70;99.90
5675;DHT22;2860;54.284;10.158;2023-03-20T07:42:11;6.80;99.90
5675;DHT22;2860;54.284;10.158;2023-03-20T07:44:38;6.70;99.90
5675;DHT22;2860;54.284;10.158;2023-03-20T07:47:04;6.80;99.90
5675;DHT22;2860;54.284;10.158;2023-03-20T07:49:30;6.80;99.90
5675;DHT22;2860;54.284;10.158;2023-03-20T07:51:56;6.90;99.90
5675;DHT22;2860;54.284;10.158;2023-03-20T07:54:22;6.90;99.90
5675;DHT22;2860;54.284;10.158;2023-03-20T07:56:47;6.90;99.90
5675;DHT22;2860;54.284;10.158;2023-03-20T07:59:13;6.90;99.90
5675;DHT22;2860;54.284;10.158;2023-03-20T08:01:39;7.00;99.90
5675;DHT22;2860;54.284;10.158;2023-03-20T08:04:05;7.00;99.90
5675;DHT22;2860;54.284;10.158;2023-03-20T08:06:30;7.00;99.90
5675;DHT22;2860;54.284;10.158;2023-03-20T08:08:56;7.10;99.90
5675;DHT22;2860;54.284;10.158;2023-03-20T08:11:21;7.00;99.90
5675;DHT22;2860;54.284;10.158;2023-03-20T08:13:47;7.00;99.90
5675;DHT22;2860;54.284;10.158;2023-03-20T08:16:12;7.10;99.90
5675;DHT22;2860;54.284;10.158;2023-03-20T08:18:38;7.10;99.90
5675;DHT22;2860;54.284;10.158;2023-03-20T08:21:03;7.10;99.90
5675;DHT22;2860;54.284;10.158;2023-03-20T08:23:29;7.20;99.90
5675;DHT22;2860;54.284;10.158;2023-03-20T08:25:55;7.20;99.90
5675;DHT22;2860;54.284;10.158;2023-03-20T08:28:20;7.20;99.90
5675;DHT22;2860;54.284;10.158;2023-03-20T08:30:46;7.20;99.90
5675;DHT22;2860;54.284;10.158;2023-03-20T08:33:13;7.20;99.90
5675;DHT22;2860;54.284;10.158;2023-03-20T08:35:39;7.20;99.90
5675;DHT22;2860;54.284;10.158;2023-03-20T08:38:05;7.20;99.90
5675;DHT22;2860;54.284;10.158;2023-03-20T08:40:31;7.20;99.90
5675;DHT22;2860;54.284;10.158;2023-03-20T08:42:56;7.20;99.90
5675;DHT22;2860;54.284;10.158;2023-03-20T08:45:22;7.20;99.90
5675;DHT22;2860;54.284;10.158;2023-03-20T08:47:50;7.20;99.90
5675;DHT22;2860;54.284;10.158;2023-03-20T08:50:16;7.30;99.90
5675;DHT22;2860;54.284;10.158;2023-03-20T08:52:42;7.20;99.90
5675;DHT22;2860;54.284;10.158;2023-03-20T08:55:10;7.20;99.90
5675;DHT22;2860;54.284;10.158;2023-03-20T08:57:36;7.20;99.90
5675;DHT22;2860;54.284;10.158;2023-03-20T09:00:03;7.20;99.90
5675;DHT22;2860;54.284;10.158;2023-03-20T09:02:30;7.20;99.90
5675;DHT22;2860;54.284;10.158;2023-03-20T09:04:56;7.20;99.90
5675;DHT22;2860;54.284;10.158;2023-03-20T09:07:21;7.20;99.90
5675;DHT22;2860;54.284;10.158;2023-03-20T09:09:47;7.20;99.90
5675;DHT22;2860;54.284;10.158;2023-03-20T09:12:12;7.10;99.90
5675;DHT22;2860;54.284;10.158;2023-03-20T09:14:38;7.10;99.90
5675;DHT22;2860;54.284;10.158;2023-03-20T09:17:04;7.20;99.90
5675;DHT22;2860;54.284;10.158;2023-03-20T09:19:30;7.30;99.90
5675;DHT22;2860;54.284;10.158;2023-03-20T09:21:56;7.30;99.90
5675;DHT22;2860;54.284;10.158;2023-03-20T09:24:21;7.40;99.90
5675;DHT22;2860;54.284;10.158;2023-03-20T09:26:47;7.40;99.90
5675;DHT22;2860;54.284;10.158;2023-03-20T09:29:13;7.40;99.90
5675;DHT22;2860;54.284;10.158;2023-03-20T09:31:38;7.50;99.90
5675;DHT22;2860;54.284;10.158;2023-03-20T09:34:04;7.50;99.90
5675;DHT22;2860;54.284;10.158;2023-03-20T09:36:30;7.50;99.90
5675;DHT22;2860;54.284;10.158;2023-03-20T09:38:56;7.50;99.90
5675;DHT22;2860;54.284;10.158;2023-03-20T09:41:24;7.60;99.90
5675;DHT22;2860;54.284;10.158;2023-03-20T09:46:38;7.60;99.90
5675;DHT22;2860;54.284;10.158;2023-03-20T09:49:25;7.50;99.90
5675;DHT22;2860;54.284;10.158;2023-03-20T09:51:58;7.50;99.90
5675;DHT22;2860;54.284;10.158;2023-03-20T09:54:36;7.50;99.90
5675;DHT22;2860;54.284;10.158;2023-03-20T09:57:04;7.60;99.90
5675;DHT22;2860;54.284;10.158;2023-03-20T09:59:31;7.60;99.90
5675;DHT22;2860;54.284;10.158;2023-03-20T10:02:07;7.60;99.90
5675;DHT22;2860;54.284;10.158;2023-03-20T10:04:37;7.60;99.90
5675;DHT22;2860;54.284;10.158;2023-03-20T10:07:04;7.60;99.90
5675;DHT22;2860;54.284;10.158;2023-03-20T10:09:30;7.60;99.90
5675;DHT22;2860;54.284;10.158;2023-03-20T10:15:02;7.70;99.90
5675;DHT22;2860;54.284;10.158;2023-03-20T10:20:21;7.80;99.90
5675;DHT22;2860;54.284;10.158;2023-03-20T10:25:43;7.80;99.90
5675;DHT22;2860;54.284;10.158;2023-03-20T10:28:21;7.70;99.90
5675;DHT22;2860;54.284;10.158;2023-03-20T10:41:42;7.70;99.90
5675;DHT22;2860;54.284;10.158;2023-03-20T10:44:15;7.70;99.90
5675;DHT22;2860;54.284;10.158;2023-03-20T10:46:45;7.80;99.90
5675;DHT22;2860;54.284;10.158;2023-03-20T10:52:02;7.80;99.90
5675;DHT22;2860;54.284;10.158;2023-03-20T10:54:37;7.80;99.90
5675;DHT22;2860;54.284;10.158;2023-03-20T10:57:08;7.80;99.90
5675;DHT22;2860;54.284;10.158;2023-03-20T10:59:41;7.80;99.90
5675;DHT22;2860;54.284;10.158;2023-03-20T11:02:12;7.90;99.90
5675;DHT22;2860;54.284;10.158;2023-03-20T11:04:38;7.90;99.90
5675;DHT22;2860;54.284;10.158;2023-03-20T11:07:23;7.80;99.90
5675;DHT22;2860;54.284;10.158;2023-03-20T11:12:39;7.80;99.90
5675;DHT22;2860;54.284;10.158;2023-03-20T11:15:18;7.80;99.90
5675;DHT22;2860;54.284;10.158;2023-03-20T11:18:01;7.80;99.90
5675;DHT22;2860;54.284;10.158;2023-03-20T11:20:37;7.90;99.90
5675;DHT22;2860;54.284;10.158;2023-03-20T11:23:05;7.90;99.90
5675;DHT22;2860;54.284;10.158;2023-03-20T11:25:57;7.90;99.90
5675;DHT22;2860;54.284;10.158;2023-03-20T11:28:35;7.90;99.90
5675;DHT22;2860;54.284;10.158;2023-03-20T11:33:41;7.90;99.90
5675;DHT22;2860;54.284;10.158;2023-03-20T11:36:21;8.00;99.90
5675;DHT22;2860;54.284;10.158;2023-03-20T11:38:50;8.10;99.90
5675;DHT22;2860;54.284;10.158;2023-03-20T11:41:22;8.20;99.90
5675;DHT22;2860;54.284;10.158;2023-03-20T11:43:48;8.20;99.90
5675;DHT22;2860;54.284;10.158;2023-03-20T11:46:13;8.20;99.90
5675;DHT22;2860;54.284;10.158;2023-03-20T11:48:41;8.20;99.90
5675;DHT22;2860;54.284;10.158;2023-03-20T11:51:09;8.20;99.90
5675;DHT22;2860;54.284;10.158;2023-03-20T11:53:39;8.20;99.90
5675;DHT22;2860;54.284;10.158;2023-03-20T11:56:28;8.20;99.90
5675;DHT22;2860;54.284;10.158;2023-03-20T12:01:44;8.20;99.90
5675;DHT22;2860;54.284;10.158;2023-03-20T12:04:28;8.10;99.90
5675;DHT22;2860;54.284;10.158;2023-03-20T12:07:17;8.10;99.90
5675;DHT22;2860;54.284;10.158;2023-03-20T12:10:05;8.20;99.90
5675;DHT22;2860;54.284;10.158;2023-03-20T12:12:51;8.10;99.90
5675;DHT22;2860;54.284;10.158;2023-03-20T12:18:09;8.10;99.90
5675;DHT22;2860;54.284;10.158;2023-03-20T12:20:45;8.30;99.90
5675;DHT22;2860;54.284;10.158;2023-03-20T12:23:36;8.30;99.90
5675;DHT22;2860;54.284;10.158;2023-03-20T12:28:57;8.30;99.90
5675;DHT22;2860;54.284;10.158;2023-03-20T12:31:43;8.40;99.90
5675;DHT22;2860;54.284;10.158;2023-03-20T12:36:53;8.60;99.90
5675;DHT22;2860;54.284;10.158;2023-03-20T12:39:23;8.70;99.90
5675;DHT22;2860;54.284;10.158;2023-03-20T12:44:50;8.80;99.90
5675;DHT22;2860;54.284;10.158;2023-03-20T12:50:32;8.70;99.90
5675;DHT22;2860;54.284;10.158;2023-03-20T12:55:56;8.90;99.90
5675;DHT22;2860;54.284;10.158;2023-03-20T12:58:40;9.00;99.90
5675;DHT22;2860;54.284;10.158;2023-03-20T13:04:02;9.00;99.90
5675;DHT22;2860;54.284;10.158;2023-03-20T13:07:00;9.00;99.90
5675;DHT22;2860;54.284;10.158;2023-03-20T13:12:33;9.30;99.90
5675;DHT22;2860;54.284;10.158;2023-03-20T13:15:09;9.40;99.90
5675;DHT22;2860;54.284;10.158;2023-03-20T13:17:48;9.50;99.90
5675;DHT22;2860;54.284;10.158;2023-03-20T13:20:19;9.50;99.90
5675;DHT22;2860;54.284;10.158;2023-03-20T13:23:11;9.50;99.90
5675;DHT22;2860;54.284;10.158;2023-03-20T13:30:43;9.00;99.90
5675;DHT22;2860;54.284;10.158;2023-03-20T13:35:50;9.00;99.90
5675;DHT22;2860;54.284;10.158;2023-03-20T13:38:21;9.00;99.90
5675;DHT22;2860;54.284;10.158;2023-03-20T13:40:54;8.80;99.90
5675;DHT22;2860;54.284;10.158;2023-03-20T13:43:42;8.80;99.90
5675;DHT22;2860;54.284;10.158;2023-03-20T13:46:21;8.60;99.90
5675;DHT22;2860;54.284;10.158;2023-03-20T13:48:50;8.60;99.90
5675;DHT22;2860;54.284;10.158;2023-03-20T13:51:44;8.60;99.90
5675;DHT22;2860;54.284;10.158;2023-03-20T13:56:59;8.40;99.90
5675;DHT22;2860;54.284;10.158;2023-03-20T14:02:23;8.30;99.90
5675;DHT22;2860;54.284;10.158;2023-03-20T14:05:18;8.40;99.90
5675;DHT22;2860;54.284;10.158;2023-03-20T14:07:44;8.50;99.90
5675;DHT22;2860;54.284;10.158;2023-03-20T14:12:54;8.50;99.90
5675;DHT22;2860;54.284;10.158;2023-03-20T14:15:20;8.50;99.90
5675;DHT22;2860;54.284;10.158;2023-03-20T14:17:48;8.40;99.90
5675;DHT22;2860;54.284;10.158;2023-03-20T14:20:30;8.40;99.90
5675;DHT22;2860;54.284;10.158;2023-03-20T14:22:56;8.30;99.90
5675;DHT22;2860;54.284;10.158;2023-03-20T14:25:22;8.30;99.90
5675;DHT22;2860;54.284;10.158;2023-03-20T14:27:58;8.20;99.90
5675;DHT22;2860;54.284;10.158;2023-03-20T14:33:05;8.10;99.90
5675;DHT22;2860;54.284;10.158;2023-03-20T14:35:41;8.00;99.90
5675;DHT22;2860;54.284;10.158;2023-03-20T14:38:26;7.90;99.90
5675;DHT22;2860;54.284;10.158;2023-03-20T14:41:07;8.00;99.90
5675;DHT22;2860;54.284;10.158;2023-03-20T14:43:50;7.90;99.90
5675;DHT22;2860;54.284;10.158;2023-03-20T14:49:35;7.80;99.90
5675;DHT22;2860;54.284;10.158;2023-03-20T14:54:39;7.60;99.90
5675;DHT22;2860;54.284;10.158;2023-03-20T14:57:16;7.60;99.90
5675;DHT22;2860;54.284;10.158;2023-03-20T14:59:42;7.50;99.90
5675;DHT22;2860;54.284;10.158;2023-03-20T15:02:27;7.40;99.90
5675;DHT22;2860;54.284;10.158;2023-03-20T15:04:53;7.40;99.90
5675;DHT22;2860;54.284;10.158;2023-03-20T15:09:47;7.30;99.90
5675;DHT22;2860;54.284;10.158;2023-03-20T15:12:19;7.30;99.90
5675;DHT22;2860;54.284;10.158;2023-03-20T15:15:25;7.30;99.90
5675;DHT22;2860;54.284;10.158;2023-03-20T15:17:51;7.30;99.90
5675;DHT22;2860;54.284;10.158;2023-03-20T15:20:19;7.40;99.90
5675;DHT22;2860;54.284;10.158;2023-03-20T15:22:59;7.50;99.90
5675;DHT22;2860;54.284;10.158;2023-03-20T15:25:32;7.60;99.90
5675;DHT22;2860;54.284;10.158;2023-03-20T15:27:59;7.80;99.90
5675;DHT22;2860;54.284;10.158;2023-03-20T15:30:25;7.90;99.90
5675;DHT22;2860;54.284;10.158;2023-03-20T15:32:54;7.90;99.90
5675;DHT22;2860;54.284;10.158;2023-03-20T15:35:21;7.90;99.90
5675;DHT22;2860;54.284;10.158;2023-03-20T15:37:49;7.90;99.90
5675;DHT22;2860;54.284;10.158;2023-03-20T15:40:29;7.90;99.90
5675;DHT22;2860;54.284;10.158;2023-03-20T15:43:00;7.80;99.90
5675;DHT22;2860;54.284;10.158;2023-03-20T15:45:33;7.90;99.90
5675;DHT22;2860;54.284;10.158;2023-03-20T15:48:12;7.90;99.90
5675;DHT22;2860;54.284;10.158;2023-03-20T15:50:39;7.90;99.90
5675;DHT22;2860;54.284;10.158;2023-03-20T15:53:07;7.90;99.90
5675;DHT22;2860;54.284;10.158;2023-03-20T15:55:35;7.90;99.90
5675;DHT22;2860;54.284;10.158;2023-03-20T15:58:02;7.90;99.90
5675;DHT22;2860;54.284;10.158;2023-03-20T16:03:00;7.80;99.90
5675;DHT22;2860;54.284;10.158;2023-03-20T16:05:28;7.70;99.90
5675;DHT22;2860;54.284;10.158;2023-03-20T16:07:55;7.70;99.90
5675;DHT22;2860;54.284;10.158;2023-03-20T16:10:33;7.70;99.90
5675;DHT22;2860;54.284;10.158;2023-03-20T16:13:01;7.70;99.90
5675;DHT22;2860;54.284;10.158;2023-03-20T16:15:28;7.60;99.90
5675;DHT22;2860;54.284;10.158;2023-03-20T16:17:58;7.60;99.90
5675;DHT22;2860;54.284;10.158;2023-03-20T16:20:27;7.60;99.90
5675;DHT22;2860;54.284;10.158;2023-03-20T16:23:00;7.70;99.90
5675;DHT22;2860;54.284;10.158;2023-03-20T16:25:27;7.70;99.90
5675;DHT22;2860;54.284;10.158;2023-03-20T16:27:53;7.60;99.90
5675;DHT22;2860;54.284;10.158;2023-03-20T16:30:23;7.60;99.90
5675;DHT22;2860;54.284;10.158;2023-03-20T16:32:57;7.60;99.90
5675;DHT22;2860;54.284;10.158;2023-03-20T16:35:31;7.50;99.90
5675;DHT22;2860;54.284;10.158;2023-03-20T16:38:01;7.50;99.90
5675;DHT22;2860;54.284;10.158;2023-03-20T16:42:53;7.50;99.90
5675;DHT22;2860;54.284;10.158;2023-03-20T16:45:28;7.50;99.90
5675;DHT22;2860;54.284;10.158;2023-03-20T16:48:19;7.50;99.90
5675;DHT22;2860;54.284;10.158;2023-03-20T16:50:46;7.50;99.90
5675;DHT22;2860;54.284;10.158;2023-03-20T16:53:16;7.50;99.90
5675;DHT22;2860;54.284;10.158;2023-03-20T16:55:46;7.50;99.90
5675;DHT22;2860;54.284;10.158;2023-03-20T16:58:25;7.50;99.90
5675;DHT22;2860;54.284;10.158;2023-03-20T17:00:57;7.50;99.90
5675;DHT22;2860;54.284;10.158;2023-03-20T17:03:30;7.50;99.90
5675;DHT22;2860;54.284;10.158;2023-03-20T17:06:07;7.40;99.90
5675;DHT22;2860;54.284;10.158;2023-03-20T17:08:44;7.40;99.90
5675;DHT22;2860;54.284;10.158;2023-03-20T17:11:18;7.40;99.90
5675;DHT22;2860;54.284;10.158;2023-03-20T17:13:46;7.30;99.90
5675;DHT22;2860;54.284;10.158;2023-03-20T17:16:16;7.30;99.90
5675;DHT22;2860;54.284;10.158;2023-03-20T17:18:47;7.30;99.90
5675;DHT22;2860;54.284;10.158;2023-03-20T17:21:22;7.30;99.90
5675;DHT22;2860;54.284;10.158;2023-03-20T17:23:47;7.30;99.90
5675;DHT22;2860;54.284;10.158;2023-03-20T17:26:13;7.30;99.90
5675;DHT22;2860;54.284;10.158;2023-03-20T17:28:38;7.30;99.90
5675;DHT22;2860;54.284;10.158;2023-03-20T17:31:04;7.30;99.90
5675;DHT22;2860;54.284;10.158;2023-03-20T17:33:31;7.30;99.90
5675;DHT22;2860;54.284;10.158;2023-03-20T17:35:58;7.20;99.90
5675;DHT22;2860;54.284;10.158;2023-03-20T17:38:23;7.20;99.90
5675;DHT22;2860;54.284;10.158;2023-03-20T17:40:50;7.20;99.90
5675;DHT22;2860;54.284;10.158;2023-03-20T17:43:17;7.20;99.90
5675;DHT22;2860;54.284;10.158;2023-03-20T17:45:44;7.20;99.90
5675;DHT22;2860;54.284;10.158;2023-03-20T17:48:16;7.20;99.90
5675;DHT22;2860;54.284;10.158;2023-03-20T17:50:43;7.20;99.90
5675;DHT22;2860;54.284;10.158;2023-03-20T17:53:18;7.10;99.90
5675;DHT22;2860;54.284;10.158;2023-03-20T17:55:44;7.10;99.90
5675;DHT22;2860;54.284;10.158;2023-03-20T17:58:14;7.10;99.90
5675;DHT22;2860;54.284;10.158;2023-03-20T18:00:40;7.10;99.90
5675;DHT22;2860;54.284;10.158;2023-03-20T18:03:05;7.10;99.90
5675;DHT22;2860;54.284;10.158;2023-03-20T18:05:31;7.10;99.90
5675;DHT22;2860;54.284;10.158;2023-03-20T18:07:58;7.10;99.90
5675;DHT22;2860;54.284;10.158;2023-03-20T18:10:30;7.10;99.90
5675;DHT22;2860;54.284;10.158;2023-03-20T18:12:56;7.10;99.90
5675;DHT22;2860;54.284;10.158;2023-03-20T18:15:22;7.00;99.90
5675;DHT22;2860;54.284;10.158;2023-03-20T18:17:48;7.00;99.90
5675;DHT22;2860;54.284;10.158;2023-03-20T18:20:23;7.00;99.90